sensor_id;sensor_type;location;lat;lon;timestamp;P1;durP1;ratioP1;P2;durP2;ratioP2
73474;SDS011;61711;52.266;10.542;2023-03-16T00:01:03;6.22;;;3.00;;
73474;SDS011;61711;52.266;10.542;2023-03-16T00:03:29;7.45;;;3.20;;
73474;SDS011;61711;52.266;10.542;2023-03-16T00:05:55;6.38;;;3.28;;
73474;SDS011;61711;52.266;10.542;2023-03-16T00:08:21;5.13;;;2.80;;
73474;SDS011;61711;52.266;10.542;2023-03-16T00:10:48;8.15;;;3.42;;
73474;SDS011;61711;52.266;10.542;2023-03-16T00:13:17;8.68;;;3.28;;
73474;SDS011;61711;52.266;10.542;2023-03-16T00:15:53;6.72;;;2.83;;
73474;SDS011;61711;52.266;10.542;2023-03-16T00:18:20;8.63;;;3.28;;
73474;SDS011;61711;52.266;10.542;2023-03-16T00:21:00;5.72;;;3.05;;
73474;SDS011;61711;52.266;10.542;2023-03-16T00:23:26;7.85;;;3.03;;
73474;SDS011;61711;52.266;10.542;2023-03-16T00:25:56;7.70;;;3.13;;
73474;SDS011;61711;52.266;10.542;2023-03-16T00:28:23;6.85;;;2.95;;
73474;SDS011;61711;52.266;10.542;2023-03-16T00:30:49;6.78;;;3.00;;
73474;SDS011;61711;52.266;10.542;2023-03-16T00:33:15;5.32;;;2.97;;
73474;SDS011;61711;52.266;10.542;2023-03-16T00:35:44;9.95;;;3.10;;
73474;SDS011;61711;52.266;10.542;2023-03-16T00:38:15;6.60;;;2.72;;
73474;SDS011;61711;52.266;10.542;2023-03-16T00:40:41;10.05;;;3.03;;
73474;SDS011;61711;52.266;10.542;2023-03-16T00:43:07;6.78;;;2.83;;
73474;SDS011;61711;52.266;10.542;2023-03-16T00:45:33;5.65;;;2.72;;
73474;SDS011;61711;52.266;10.542;2023-03-16T00:48:00;7.85;;;2.40;;
73474;SDS011;61711;52.266;10.542;2023-03-16T00:50:26;5.32;;;2.25;;
73474;SDS011;61711;52.266;10.542;2023-03-16T00:52:52;7.25;;;2.90;;
73474;SDS011;61711;52.266;10.542;2023-03-16T00:55:20;6.30;;;2.67;;
73474;SDS011;61711;52.266;10.542;2023-03-16T00:57:46;7.10;;;2.40;;
73474;SDS011;61711;52.266;10.542;2023-03-16T01:00:13;4.97;;;2.40;;
73474;SDS011;61711;52.266;10.542;2023-03-16T01:02:40;7.90;;;2.90;;
73474;SDS011;61711;52.266;10.542;2023-03-16T01:05:07;9.35;;;2.90;;
73474;SDS011;61711;52.266;10.542;2023-03-16T01:07:33;6.75;;;2.78;;
73474;SDS011;61711;52.266;10.542;2023-03-16T01:10:00;6.75;;;2.67;;
73474;SDS011;61711;52.266;10.542;2023-03-16T01:12:26;6.93;;;2.35;;
73474;SDS011;61711;52.266;10.542;2023-03-16T01:14:52;8.23;;;2.72;;
73474;SDS011;61711;52.266;10.542;2023-03-16T01:17:19;6.03;;;2.53;;
73474;SDS011;61711;52.266;10.542;2023-03-16T01:19:46;7.25;;;2.60;;
73474;SDS011;61711;52.266;10.542;2023-03-16T01:22:13;4.63;;;2.10;;
73474;SDS011;61711;52.266;10.542;2023-03-16T01:24:40;8.60;;;2.53;;
73474;SDS011;61711;52.266;10.542;2023-03-16T01:27:07;4.13;;;2.63;;
73474;SDS011;61711;52.266;10.542;2023-03-16T01:29:33;4.35;;;2.13;;
73474;SDS011;61711;52.266;10.542;2023-03-16T01:32:00;4.88;;;2.35;;
73474;SDS011;61711;52.266;10.542;2023-03-16T01:34:26;5.00;;;2.30;;
73474;SDS011;61711;52.266;10.542;2023-03-16T01:36:52;5.90;;;2.38;;
73474;SDS011;61711;52.266;10.542;2023-03-16T01:39:18;4.82;;;2.00;;
73474;SDS011;61711;52.266;10.542;2023-03-16T01:41:45;5.13;;;2.10;;
73474;SDS011;61711;52.266;10.542;2023-03-16T01:44:22;4.35;;;2.13;;
73474;SDS011;61711;52.266;10.542;2023-03-16T01:46:54;6.35;;;1.80;;
73474;SDS011;61711;52.266;10.542;2023-03-16T01:49:24;4.78;;;2.22;;
73474;SDS011;61711;52.266;10.542;2023-03-16T01:51:52;6.15;;;2.13;;
73474;SDS011;61711;52.266;10.542;2023-03-16T01:54:24;4.75;;;1.95;;
73474;SDS011;61711;52.266;10.542;2023-03-16T01:59:27;6.97;;;2.15;;
73474;SDS011;61711;52.266;10.542;2023-03-16T02:01:54;7.70;;;2.22;;
73474;SDS011;61711;52.266;10.542;2023-03-16T02:04:35;4.75;;;1.80;;
73474;SDS011;61711;52.266;10.542;2023-03-16T02:07:02;6.75;;;2.45;;
73474;SDS011;61711;52.266;10.542;2023-03-16T02:09:30;3.95;;;1.75;;
73474;SDS011;61711;52.266;10.542;2023-03-16T02:11:56;6.97;;;2.10;;
73474;SDS011;61711;52.266;10.542;2023-03-16T02:14:22;5.40;;;1.98;;
73474;SDS011;61711;52.266;10.542;2023-03-16T02:16:49;3.53;;;1.70;;
73474;SDS011;61711;52.266;10.542;2023-03-16T02:19:18;7.43;;;1.80;;
73474;SDS011;61711;52.266;10.542;2023-03-16T02:21:56;4.70;;;1.98;;
73474;SDS011;61711;52.266;10.542;2023-03-16T02:24:26;4.38;;;1.80;;
73474;SDS011;61711;52.266;10.542;2023-03-16T02:27:35;7.20;;;2.10;;
73474;SDS011;61711;52.266;10.542;2023-03-16T02:32:26;5.22;;;1.75;;
73474;SDS011;61711;52.266;10.542;2023-03-16T02:34:53;3.65;;;1.60;;
73474;SDS011;61711;52.266;10.542;2023-03-16T02:37:19;5.85;;;2.33;;
73474;SDS011;61711;52.266;10.542;2023-03-16T02:39:45;5.35;;;1.90;;
73474;SDS011;61711;52.266;10.542;2023-03-16T02:42:12;5.50;;;1.80;;
73474;SDS011;61711;52.266;10.542;2023-03-16T02:44:39;3.97;;;1.58;;
73474;SDS011;61711;52.266;10.542;2023-03-16T02:47:12;6.55;;;1.45;;
73474;SDS011;61711;52.266;10.542;2023-03-16T02:49:40;6.20;;;2.15;;
73474;SDS011;61711;52.266;10.542;2023-03-16T02:52:07;2.85;;;1.63;;
73474;SDS011;61711;52.266;10.542;2023-03-16T02:54:33;3.90;;;1.65;;
73474;SDS011;61711;52.266;10.542;2023-03-16T02:56:59;4.22;;;1.83;;
73474;SDS011;61711;52.266;10.542;2023-03-16T02:59:25;4.50;;;1.70;;
73474;SDS011;61711;52.266;10.542;2023-03-16T03:01:51;4.75;;;1.70;;
73474;SDS011;61711;52.266;10.542;2023-03-16T03:04:17;6.35;;;1.75;;
73474;SDS011;61711;52.266;10.542;2023-03-16T03:06:44;3.53;;;1.75;;
73474;SDS011;61711;52.266;10.542;2023-03-16T03:09:10;7.03;;;1.80;;
73474;SDS011;61711;52.266;10.542;2023-03-16T03:11:36;3.55;;;1.80;;
73474;SDS011;61711;52.266;10.542;2023-03-16T03:14:02;4.20;;;1.50;;
73474;SDS011;61711;52.266;10.542;2023-03-16T03:16:28;3.58;;;1.60;;
73474;SDS011;61711;52.266;10.542;2023-03-16T03:18:55;5.30;;;1.77;;
73474;SDS011;61711;52.266;10.542;2023-03-16T03:21:21;3.30;;;1.70;;
73474;SDS011;61711;52.266;10.542;2023-03-16T03:23:48;4.68;;;1.75;;
73474;SDS011;61711;52.266;10.542;2023-03-16T03:26:14;4.13;;;1.70;;
73474;SDS011;61711;52.266;10.542;2023-03-16T03:28:40;6.45;;;1.65;;
73474;SDS011;61711;52.266;10.542;2023-03-16T03:31:07;4.65;;;1.77;;
73474;SDS011;61711;52.266;10.542;2023-03-16T03:33:37;5.00;;;1.98;;
73474;SDS011;61711;52.266;10.542;2023-03-16T03:36:03;5.78;;;1.65;;
73474;SDS011;61711;52.266;10.542;2023-03-16T03:38:29;4.55;;;1.70;;
73474;SDS011;61711;52.266;10.542;2023-03-16T03:40:55;5.68;;;1.83;;
73474;SDS011;61711;52.266;10.542;2023-03-16T03:43:24;3.42;;;1.50;;
73474;SDS011;61711;52.266;10.542;2023-03-16T03:45:54;4.10;;;1.48;;
73474;SDS011;61711;52.266;10.542;2023-03-16T03:48:21;7.25;;;2.05;;
73474;SDS011;61711;52.266;10.542;2023-03-16T03:50:47;3.58;;;1.67;;
73474;SDS011;61711;52.266;10.542;2023-03-16T03:53:13;6.10;;;1.80;;
73474;SDS011;61711;52.266;10.542;2023-03-16T03:55:39;4.15;;;1.75;;
73474;SDS011;61711;52.266;10.542;2023-03-16T03:58:05;4.72;;;1.67;;
73474;SDS011;61711;52.266;10.542;2023-03-16T04:00:31;4.82;;;2.00;;
73474;SDS011;61711;52.266;10.542;2023-03-16T04:02:57;4.80;;;1.77;;
73474;SDS011;61711;52.266;10.542;2023-03-16T04:05:24;6.20;;;1.60;;
73474;SDS011;61711;52.266;10.542;2023-03-16T04:07:53;3.92;;;1.60;;
73474;SDS011;61711;52.266;10.542;2023-03-16T04:10:24;6.20;;;2.25;;
73474;SDS011;61711;52.266;10.542;2023-03-16T04:12:51;6.65;;;1.75;;
73474;SDS011;61711;52.266;10.542;2023-03-16T04:15:17;4.70;;;1.80;;
73474;SDS011;61711;52.266;10.542;2023-03-16T04:17:43;3.83;;;1.65;;
73474;SDS011;61711;52.266;10.542;2023-03-16T04:20:09;5.25;;;1.55;;
73474;SDS011;61711;52.266;10.542;2023-03-16T04:22:42;3.30;;;1.73;;
73474;SDS011;61711;52.266;10.542;2023-03-16T04:25:09;6.82;;;1.75;;
73474;SDS011;61711;52.266;10.542;2023-03-16T04:27:35;6.22;;;3.53;;
73474;SDS011;61711;52.266;10.542;2023-03-16T04:30:02;5.00;;;2.00;;
73474;SDS011;61711;52.266;10.542;2023-03-16T04:32:29;3.75;;;1.83;;
73474;SDS011;61711;52.266;10.542;2023-03-16T04:34:55;3.63;;;1.67;;
73474;SDS011;61711;52.266;10.542;2023-03-16T04:37:21;4.80;;;1.77;;
73474;SDS011;61711;52.266;10.542;2023-03-16T04:39:47;4.60;;;1.77;;
73474;SDS011;61711;52.266;10.542;2023-03-16T04:42:13;7.18;;;1.65;;
73474;SDS011;61711;52.266;10.542;2023-03-16T04:44:39;8.35;;;1.83;;
73474;SDS011;61711;52.266;10.542;2023-03-16T04:47:08;5.40;;;1.58;;
73474;SDS011;61711;52.266;10.542;2023-03-16T04:49:34;5.40;;;1.65;;
73474;SDS011;61711;52.266;10.542;2023-03-16T04:52:00;4.65;;;1.52;;
73474;SDS011;61711;52.266;10.542;2023-03-16T04:54:26;7.80;;;2.92;;
73474;SDS011;61711;52.266;10.542;2023-03-16T04:56:52;6.10;;;2.20;;
73474;SDS011;61711;52.266;10.542;2023-03-16T04:59:18;5.43;;;1.80;;
73474;SDS011;61711;52.266;10.542;2023-03-16T05:01:44;3.90;;;1.60;;
73474;SDS011;61711;52.266;10.542;2023-03-16T05:04:10;4.40;;;1.60;;
73474;SDS011;61711;52.266;10.542;2023-03-16T05:06:36;2.95;;;1.55;;
73474;SDS011;61711;52.266;10.542;2023-03-16T05:09:02;4.30;;;1.60;;
73474;SDS011;61711;52.266;10.542;2023-03-16T05:11:30;4.30;;;1.45;;
73474;SDS011;61711;52.266;10.542;2023-03-16T05:13:56;4.93;;;1.50;;
73474;SDS011;61711;52.266;10.542;2023-03-16T05:16:22;4.25;;;1.45;;
73474;SDS011;61711;52.266;10.542;2023-03-16T05:18:48;2.97;;;1.75;;
73474;SDS011;61711;52.266;10.542;2023-03-16T05:21:14;7.38;;;2.05;;
73474;SDS011;61711;52.266;10.542;2023-03-16T05:23:40;4.70;;;1.70;;
73474;SDS011;61711;52.266;10.542;2023-03-16T05:26:06;7.03;;;1.63;;
73474;SDS011;61711;52.266;10.542;2023-03-16T05:28:32;3.47;;;1.55;;
73474;SDS011;61711;52.266;10.542;2023-03-16T05:30:58;2.47;;;1.27;;
73474;SDS011;61711;52.266;10.542;2023-03-16T05:33:27;5.38;;;1.60;;
73474;SDS011;61711;52.266;10.542;2023-03-16T05:35:53;5.70;;;1.70;;
73474;SDS011;61711;52.266;10.542;2023-03-16T05:38:22;3.78;;;1.30;;
73474;SDS011;61711;52.266;10.542;2023-03-16T05:40:48;7.72;;;1.58;;
73474;SDS011;61711;52.266;10.542;2023-03-16T05:43:17;6.20;;;1.50;;
73474;SDS011;61711;52.266;10.542;2023-03-16T05:45:44;4.93;;;1.58;;
73474;SDS011;61711;52.266;10.542;2023-03-16T05:48:10;8.13;;;2.58;;
73474;SDS011;61711;52.266;10.542;2023-03-16T05:50:36;5.57;;;2.17;;
73474;SDS011;61711;52.266;10.542;2023-03-16T05:53:02;4.70;;;2.03;;
73474;SDS011;61711;52.266;10.542;2023-03-16T05:55:28;4.93;;;1.88;;
73474;SDS011;61711;52.266;10.542;2023-03-16T05:57:54;3.38;;;1.60;;
73474;SDS011;61711;52.266;10.542;2023-03-16T06:00:21;2.83;;;1.50;;
73474;SDS011;61711;52.266;10.542;2023-03-16T06:02:48;3.53;;;1.55;;
73474;SDS011;61711;52.266;10.542;2023-03-16T06:05:15;2.42;;;1.45;;
73474;SDS011;61711;52.266;10.542;2023-03-16T06:07:42;4.75;;;1.33;;
73474;SDS011;61711;52.266;10.542;2023-03-16T06:10:08;5.68;;;1.80;;
73474;SDS011;61711;52.266;10.542;2023-03-16T06:12:36;2.22;;;1.50;;
73474;SDS011;61711;52.266;10.542;2023-03-16T06:15:03;5.32;;;1.40;;
73474;SDS011;61711;52.266;10.542;2023-03-16T06:17:31;4.07;;;1.90;;
73474;SDS011;61711;52.266;10.542;2023-03-16T06:19:57;6.75;;;1.27;;
73474;SDS011;61711;52.266;10.542;2023-03-16T06:22:24;5.82;;;1.40;;
73474;SDS011;61711;52.266;10.542;2023-03-16T06:24:50;7.05;;;1.65;;
73474;SDS011;61711;52.266;10.542;2023-03-16T06:27:17;3.13;;;1.40;;
73474;SDS011;61711;52.266;10.542;2023-03-16T06:29:44;3.95;;;1.52;;
73474;SDS011;61711;52.266;10.542;2023-03-16T06:32:10;4.78;;;1.20;;
73474;SDS011;61711;52.266;10.542;2023-03-16T06:34:36;2.25;;;1.17;;
73474;SDS011;61711;52.266;10.542;2023-03-16T06:37:02;5.28;;;1.80;;
73474;SDS011;61711;52.266;10.542;2023-03-16T06:39:28;3.85;;;1.40;;
73474;SDS011;61711;52.266;10.542;2023-03-16T06:41:55;3.22;;;1.30;;
73474;SDS011;61711;52.266;10.542;2023-03-16T06:44:21;5.28;;;1.38;;
73474;SDS011;61711;52.266;10.542;2023-03-16T06:46:47;2.47;;;1.33;;
73474;SDS011;61711;52.266;10.542;2023-03-16T06:49:13;4.28;;;1.48;;
73474;SDS011;61711;52.266;10.542;2023-03-16T06:51:39;4.05;;;1.70;;
73474;SDS011;61711;52.266;10.542;2023-03-16T06:54:05;4.72;;;1.60;;
73474;SDS011;61711;52.266;10.542;2023-03-16T06:56:32;8.05;;;1.60;;
73474;SDS011;61711;52.266;10.542;2023-03-16T06:58:58;5.82;;;1.48;;
73474;SDS011;61711;52.266;10.542;2023-03-16T07:01:24;4.55;;;1.30;;
73474;SDS011;61711;52.266;10.542;2023-03-16T07:03:50;4.25;;;1.40;;
73474;SDS011;61711;52.266;10.542;2023-03-16T07:06:16;3.22;;;1.30;;
73474;SDS011;61711;52.266;10.542;2023-03-16T07:08:42;4.78;;;1.75;;
73474;SDS011;61711;52.266;10.542;2023-03-16T07:11:08;8.23;;;1.60;;
73474;SDS011;61711;52.266;10.542;2023-03-16T07:13:35;3.15;;;1.63;;
73474;SDS011;61711;52.266;10.542;2023-03-16T07:16:01;3.35;;;1.77;;
73474;SDS011;61711;52.266;10.542;2023-03-16T07:18:28;5.28;;;1.92;;
73474;SDS011;61711;52.266;10.542;2023-03-16T07:20:55;8.52;;;1.63;;
73474;SDS011;61711;52.266;10.542;2023-03-16T07:23:22;4.82;;;1.60;;
73474;SDS011;61711;52.266;10.542;2023-03-16T07:25:49;5.10;;;1.85;;
73474;SDS011;61711;52.266;10.542;2023-03-16T07:28:16;3.97;;;1.58;;
73474;SDS011;61711;52.266;10.542;2023-03-16T07:30:42;3.10;;;1.58;;
73474;SDS011;61711;52.266;10.542;2023-03-16T07:33:09;7.28;;;1.63;;
73474;SDS011;61711;52.266;10.542;2023-03-16T07:35:35;7.80;;;2.20;;
73474;SDS011;61711;52.266;10.542;2023-03-16T07:38:01;3.85;;;1.70;;
73474;SDS011;61711;52.266;10.542;2023-03-16T07:40:27;5.00;;;1.85;;
73474;SDS011;61711;52.266;10.542;2023-03-16T07:42:53;3.60;;;1.80;;
73474;SDS011;61711;52.266;10.542;2023-03-16T07:45:19;9.05;;;2.28;;
73474;SDS011;61711;52.266;10.542;2023-03-16T07:47:45;6.03;;;1.63;;
73474;SDS011;61711;52.266;10.542;2023-03-16T07:50:11;6.32;;;1.80;;
73474;SDS011;61711;52.266;10.542;2023-03-16T07:52:40;6.30;;;2.33;;
73474;SDS011;61711;52.266;10.542;2023-03-16T07:55:06;4.88;;;2.25;;
73474;SDS011;61711;52.266;10.542;2023-03-16T07:57:32;6.55;;;2.50;;
73474;SDS011;61711;52.266;10.542;2023-03-16T07:59:58;3.58;;;1.90;;
73474;SDS011;61711;52.266;10.542;2023-03-16T08:02:24;5.97;;;2.00;;
73474;SDS011;61711;52.266;10.542;2023-03-16T08:04:50;7.15;;;1.92;;
73474;SDS011;61711;52.266;10.542;2023-03-16T08:07:16;5.75;;;1.98;;
73474;SDS011;61711;52.266;10.542;2023-03-16T08:09:42;6.30;;;2.22;;
73474;SDS011;61711;52.266;10.542;2023-03-16T08:12:08;4.15;;;1.85;;
73474;SDS011;61711;52.266;10.542;2023-03-16T08:14:35;4.72;;;1.60;;
73474;SDS011;61711;52.266;10.542;2023-03-16T08:17:02;4.50;;;1.58;;
73474;SDS011;61711;52.266;10.542;2023-03-16T08:19:28;4.32;;;1.75;;
73474;SDS011;61711;52.266;10.542;2023-03-16T08:21:54;3.67;;;1.75;;
73474;SDS011;61711;52.266;10.542;2023-03-16T08:24:21;4.45;;;1.67;;
73474;SDS011;61711;52.266;10.542;2023-03-16T08:26:47;6.00;;;2.08;;
73474;SDS011;61711;52.266;10.542;2023-03-16T08:29:13;5.82;;;2.10;;
73474;SDS011;61711;52.266;10.542;2023-03-16T08:31:39;5.30;;;1.83;;
73474;SDS011;61711;52.266;10.542;2023-03-16T08:34:06;4.63;;;1.90;;
73474;SDS011;61711;52.266;10.542;2023-03-16T08:36:34;3.60;;;1.92;;
73474;SDS011;61711;52.266;10.542;2023-03-16T08:39:01;4.93;;;1.60;;
73474;SDS011;61711;52.266;10.542;2023-03-16T08:41:29;6.43;;;1.70;;
73474;SDS011;61711;52.266;10.542;2023-03-16T08:43:56;5.95;;;1.58;;
73474;SDS011;61711;52.266;10.542;2023-03-16T08:46:22;6.40;;;1.50;;
73474;SDS011;61711;52.266;10.542;2023-03-16T08:48:48;5.47;;;1.75;;
73474;SDS011;61711;52.266;10.542;2023-03-16T08:51:15;5.60;;;1.70;;
73474;SDS011;61711;52.266;10.542;2023-03-16T08:53:41;3.72;;;1.60;;
73474;SDS011;61711;52.266;10.542;2023-03-16T08:56:09;3.78;;;1.38;;
73474;SDS011;61711;52.266;10.542;2023-03-16T08:58:36;4.65;;;1.67;;
73474;SDS011;61711;52.266;10.542;2023-03-16T09:01:03;5.20;;;1.77;;
73474;SDS011;61711;52.266;10.542;2023-03-16T09:03:30;3.78;;;1.50;;
73474;SDS011;61711;52.266;10.542;2023-03-16T09:06:00;6.28;;;1.90;;
73474;SDS011;61711;52.266;10.542;2023-03-16T09:08:26;4.28;;;2.00;;
73474;SDS011;61711;52.266;10.542;2023-03-16T09:11:03;6.28;;;1.60;;
73474;SDS011;61711;52.266;10.542;2023-03-16T09:13:31;4.85;;;1.55;;
73474;SDS011;61711;52.266;10.542;2023-03-16T09:15:58;5.72;;;1.58;;
73474;SDS011;61711;52.266;10.542;2023-03-16T09:18:24;4.45;;;1.60;;
73474;SDS011;61711;52.266;10.542;2023-03-16T09:20:51;3.53;;;1.50;;
73474;SDS011;61711;52.266;10.542;2023-03-16T09:23:17;3.40;;;1.90;;
73474;SDS011;61711;52.266;10.542;2023-03-16T09:25:43;3.85;;;1.70;;
73474;SDS011;61711;52.266;10.542;2023-03-16T09:28:09;3.30;;;1.50;;
73474;SDS011;61711;52.266;10.542;2023-03-16T09:30:36;5.93;;;1.63;;
73474;SDS011;61711;52.266;10.542;2023-03-16T09:33:02;4.15;;;1.65;;
73474;SDS011;61711;52.266;10.542;2023-03-16T09:35:28;3.75;;;1.63;;
73474;SDS011;61711;52.266;10.542;2023-03-16T09:37:56;7.22;;;1.73;;
73474;SDS011;61711;52.266;10.542;2023-03-16T09:40:26;4.28;;;1.92;;
73474;SDS011;61711;52.266;10.542;2023-03-16T09:47:54;5.75;;;1.60;;
73474;SDS011;61711;52.266;10.542;2023-03-16T09:50:26;2.78;;;1.42;;
73474;SDS011;61711;52.266;10.542;2023-03-16T09:53:07;4.32;;;1.48;;
73474;SDS011;61711;52.266;10.542;2023-03-16T09:55:41;6.60;;;1.80;;
73474;SDS011;61711;52.266;10.542;2023-03-16T09:58:26;3.70;;;1.50;;
73474;SDS011;61711;52.266;10.542;2023-03-16T10:04:05;2.05;;;1.10;;
73474;SDS011;61711;52.266;10.542;2023-03-16T10:06:34;3.23;;;1.40;;
73474;SDS011;61711;52.266;10.542;2023-03-16T10:11:48;3.90;;;1.02;;
73474;SDS011;61711;52.266;10.542;2023-03-16T10:14:24;4.28;;;1.30;;
73474;SDS011;61711;52.266;10.542;2023-03-16T10:24:47;4.32;;;1.10;;
73474;SDS011;61711;52.266;10.542;2023-03-16T10:27:18;2.25;;;1.05;;
73474;SDS011;61711;52.266;10.542;2023-03-16T10:29:45;3.25;;;0.90;;
73474;SDS011;61711;52.266;10.542;2023-03-16T10:32:15;1.27;;;0.80;;
73474;SDS011;61711;52.266;10.542;2023-03-16T10:34:46;3.05;;;0.93;;
73474;SDS011;61711;52.266;10.542;2023-03-16T10:37:13;2.75;;;1.42;;
73474;SDS011;61711;52.266;10.542;2023-03-16T10:39:39;2.70;;;1.00;;
73474;SDS011;61711;52.266;10.542;2023-03-16T10:42:12;2.80;;;0.82;;
73474;SDS011;61711;52.266;10.542;2023-03-16T10:44:40;4.38;;;1.23;;
73474;SDS011;61711;52.266;10.542;2023-03-16T10:47:06;3.13;;;1.00;;
73474;SDS011;61711;52.266;10.542;2023-03-16T10:49:39;1.48;;;0.90;;
73474;SDS011;61711;52.266;10.542;2023-03-16T10:55:26;1.45;;;0.80;;
73474;SDS011;61711;52.266;10.542;2023-03-16T10:57:33;2.35;;;0.80;;
73474;SDS011;61711;52.266;10.542;2023-03-16T11:00:11;2.00;;;0.80;;
73474;SDS011;61711;52.266;10.542;2023-03-16T11:02:44;6.82;;;0.95;;
73474;SDS011;61711;52.266;10.542;2023-03-16T11:07:37;2.42;;;1.00;;
73474;SDS011;61711;52.266;10.542;2023-03-16T11:10:11;3.03;;;0.80;;
73474;SDS011;61711;52.266;10.542;2023-03-16T11:12:38;3.83;;;0.80;;
73474;SDS011;61711;52.266;10.542;2023-03-16T11:15:08;3.28;;;1.10;;
73474;SDS011;61711;52.266;10.542;2023-03-16T11:17:41;1.70;;;0.77;;
73474;SDS011;61711;52.266;10.542;2023-03-16T11:20:15;5.78;;;1.58;;
73474;SDS011;61711;52.266;10.542;2023-03-16T11:22:43;3.30;;;0.90;;
73474;SDS011;61711;52.266;10.542;2023-03-16T11:25:18;2.92;;;1.02;;
73474;SDS011;61711;52.266;10.542;2023-03-16T11:27:52;2.97;;;0.93;;
73474;SDS011;61711;52.266;10.542;2023-03-16T11:32:47;2.08;;;0.95;;
73474;SDS011;61711;52.266;10.542;2023-03-16T11:40:40;2.40;;;0.98;;
73474;SDS011;61711;52.266;10.542;2023-03-16T11:56:32;2.40;;;0.98;;
73474;SDS011;61711;52.266;10.542;2023-03-16T11:59:18;1.83;;;0.85;;
73474;SDS011;61711;52.266;10.542;2023-03-16T12:14:52;1.58;;;0.90;;
73474;SDS011;61711;52.266;10.542;2023-03-16T12:17:24;2.72;;;1.00;;
73474;SDS011;61711;52.266;10.542;2023-03-16T12:19:53;3.47;;;0.95;;
73474;SDS011;61711;52.266;10.542;2023-03-16T12:22:37;1.25;;;0.80;;
73474;SDS011;61711;52.266;10.542;2023-03-16T12:25:10;1.95;;;0.98;;
73474;SDS011;61711;52.266;10.542;2023-03-16T12:27:38;3.03;;;1.05;;
73474;SDS011;61711;52.266;10.542;2023-03-16T12:32:41;1.80;;;0.90;;
73474;SDS011;61711;52.266;10.542;2023-03-16T12:37:48;3.15;;;0.93;;
73474;SDS011;61711;52.266;10.542;2023-03-16T12:40:25;3.00;;;1.00;;
73474;SDS011;61711;52.266;10.542;2023-03-16T12:45:29;1.27;;;0.70;;
73474;SDS011;61711;52.266;10.542;2023-03-16T12:50:45;1.05;;;0.70;;
73474;SDS011;61711;52.266;10.542;2023-03-16T12:53:23;1.25;;;0.75;;
73474;SDS011;61711;52.266;10.542;2023-03-16T12:55:51;2.53;;;0.85;;
73474;SDS011;61711;52.266;10.542;2023-03-16T12:58:17;3.20;;;1.40;;
73474;SDS011;61711;52.266;10.542;2023-03-16T13:00:43;1.58;;;0.82;;
73474;SDS011;61711;52.266;10.542;2023-03-16T13:03:20;1.75;;;1.00;;
73474;SDS011;61711;52.266;10.542;2023-03-16T13:05:50;3.15;;;1.27;;
73474;SDS011;61711;52.266;10.542;2023-03-16T13:08:18;2.80;;;1.10;;
73474;SDS011;61711;52.266;10.542;2023-03-16T13:11:01;4.13;;;1.00;;
73474;SDS011;61711;52.266;10.542;2023-03-16T13:13:27;1.27;;;0.82;;
73474;SDS011;61711;52.266;10.542;2023-03-16T13:16:39;1.88;;;0.90;;
73474;SDS011;61711;52.266;10.542;2023-03-16T13:18:40;1.98;;;1.00;;
73474;SDS011;61711;52.266;10.542;2023-03-16T13:23:56;2.70;;;1.20;;
73474;SDS011;61711;52.266;10.542;2023-03-16T13:26:40;1.83;;;1.23;;
73474;SDS011;61711;52.266;10.542;2023-03-16T13:29:18;3.47;;;1.20;;
73474;SDS011;61711;52.266;10.542;2023-03-16T13:31:45;5.60;;;1.27;;
73474;SDS011;61711;52.266;10.542;2023-03-16T13:34:13;3.67;;;1.23;;
73474;SDS011;61711;52.266;10.542;2023-03-16T13:36:39;2.75;;;1.13;;
73474;SDS011;61711;52.266;10.542;2023-03-16T13:39:16;1.27;;;0.85;;
73474;SDS011;61711;52.266;10.542;2023-03-16T13:41:53;2.33;;;1.10;;
73474;SDS011;61711;52.266;10.542;2023-03-16T13:44:20;2.10;;;1.17;;
73474;SDS011;61711;52.266;10.542;2023-03-16T13:46:47;1.65;;;1.00;;
73474;SDS011;61711;52.266;10.542;2023-03-16T13:49:17;2.85;;;1.33;;
73474;SDS011;61711;52.266;10.542;2023-03-16T13:51:43;3.33;;;1.17;;
73474;SDS011;61711;52.266;10.542;2023-03-16T13:54:18;2.22;;;1.50;;
73474;SDS011;61711;52.266;10.542;2023-03-16T13:56:46;2.13;;;1.10;;
73474;SDS011;61711;52.266;10.542;2023-03-16T13:59:12;3.35;;;1.33;;
73474;SDS011;61711;52.266;10.542;2023-03-16T14:01:41;3.78;;;1.20;;
73474;SDS011;61711;52.266;10.542;2023-03-16T14:04:09;2.80;;;1.40;;
73474;SDS011;61711;52.266;10.542;2023-03-16T14:06:38;3.05;;;1.60;;
73474;SDS011;61711;52.266;10.542;2023-03-16T14:09:06;3.38;;;1.40;;
73474;SDS011;61711;52.266;10.542;2023-03-16T14:11:33;2.30;;;1.50;;
73474;SDS011;61711;52.266;10.542;2023-03-16T14:13:59;4.72;;;1.25;;
73474;SDS011;61711;52.266;10.542;2023-03-16T14:16:27;2.92;;;1.30;;
73474;SDS011;61711;52.266;10.542;2023-03-16T14:18:57;3.35;;;1.30;;
73474;SDS011;61711;52.266;10.542;2023-03-16T14:21:26;2.33;;;1.60;;
73474;SDS011;61711;52.266;10.542;2023-03-16T14:23:56;2.58;;;1.40;;
73474;SDS011;61711;52.266;10.542;2023-03-16T14:26:22;3.72;;;1.60;;
73474;SDS011;61711;52.266;10.542;2023-03-16T14:29:03;2.92;;;1.48;;
73474;SDS011;61711;52.266;10.542;2023-03-16T14:31:31;4.22;;;1.40;;
73474;SDS011;61711;52.266;10.542;2023-03-16T14:33:59;3.05;;;1.52;;
73474;SDS011;61711;52.266;10.542;2023-03-16T14:36:32;3.00;;;1.40;;
73474;SDS011;61711;52.266;10.542;2023-03-16T14:39:08;2.13;;;1.30;;
73474;SDS011;61711;52.266;10.542;2023-03-16T14:41:34;3.28;;;1.60;;
73474;SDS011;61711;52.266;10.542;2023-03-16T14:44:03;4.30;;;1.50;;
73474;SDS011;61711;52.266;10.542;2023-03-16T14:46:33;3.63;;;1.70;;
73474;SDS011;61711;52.266;10.542;2023-03-16T14:49:05;3.47;;;1.50;;
73474;SDS011;61711;52.266;10.542;2023-03-16T14:51:33;4.43;;;1.80;;
73474;SDS011;61711;52.266;10.542;2023-03-16T14:54:00;3.15;;;1.60;;
73474;SDS011;61711;52.266;10.542;2023-03-16T14:56:30;3.60;;;1.70;;
73474;SDS011;61711;52.266;10.542;2023-03-16T14:58:58;5.00;;;1.60;;
73474;SDS011;61711;52.266;10.542;2023-03-16T15:01:24;5.35;;;1.92;;
73474;SDS011;61711;52.266;10.542;2023-03-16T15:03:50;3.92;;;1.80;;
73474;SDS011;61711;52.266;10.542;2023-03-16T15:06:17;5.78;;;2.05;;
73474;SDS011;61711;52.266;10.542;2023-03-16T15:08:43;3.30;;;1.65;;
73474;SDS011;61711;52.266;10.542;2023-03-16T15:11:10;2.97;;;1.70;;
73474;SDS011;61711;52.266;10.542;2023-03-16T15:13:37;4.07;;;1.80;;
73474;SDS011;61711;52.266;10.542;2023-03-16T15:16:06;3.35;;;1.73;;
73474;SDS011;61711;52.266;10.542;2023-03-16T15:18:35;5.38;;;1.90;;
73474;SDS011;61711;52.266;10.542;2023-03-16T15:21:03;2.70;;;1.80;;
73474;SDS011;61711;52.266;10.542;2023-03-16T15:23:31;3.83;;;1.90;;
73474;SDS011;61711;52.266;10.542;2023-03-16T15:25:57;4.63;;;2.20;;
73474;SDS011;61711;52.266;10.542;2023-03-16T15:28:27;3.65;;;1.80;;
73474;SDS011;61711;52.266;10.542;2023-03-16T15:30:54;3.95;;;2.00;;
73474;SDS011;61711;52.266;10.542;2023-03-16T15:33:21;5.95;;;2.10;;
73474;SDS011;61711;52.266;10.542;2023-03-16T15:35:48;3.35;;;1.92;;
73474;SDS011;61711;52.266;10.542;2023-03-16T15:40:42;5.78;;;2.15;;
73474;SDS011;61711;52.266;10.542;2023-03-16T15:43:11;3.28;;;1.80;;
73474;SDS011;61711;52.266;10.542;2023-03-16T15:45:38;7.05;;;2.35;;
73474;SDS011;61711;52.266;10.542;2023-03-16T15:48:04;5.65;;;2.15;;
73474;SDS011;61711;52.266;10.542;2023-03-16T15:50:30;3.63;;;2.10;;
73474;SDS011;61711;52.266;10.542;2023-03-16T15:52:58;4.00;;;2.30;;
73474;SDS011;61711;52.266;10.542;2023-03-16T15:55:31;4.68;;;1.70;;
73474;SDS011;61711;52.266;10.542;2023-03-16T16:00:31;4.85;;;1.55;;